createdAt,value
2019-02-05T00:00:04.065Z,101.33
2019-02-05T00:02:36.170Z,104.13
2019-02-05T00:05:07.165Z,99.83
2019-02-05T00:07:37.822Z,102.87
2019-02-05T00:10:08.600Z,102.13
2019-02-05T00:12:39.194Z,104.77
2019-02-05T00:15:09.759Z,103.93
2019-02-05T00:17:40.297Z,102.13
2019-02-05T00:20:11.112Z,101.00
2019-02-05T00:22:42.750Z,103.00
2019-02-05T00:25:13.393Z,100.93
2019-02-05T00:27:44.225Z,102.13
2019-02-05T00:30:15.543Z,101.50
2019-02-05T00:32:46.910Z,101.13
2019-02-05T00:35:17.473Z,100.67
2019-02-05T00:37:48.480Z,100.83
2019-02-05T00:40:19.294Z,102.57
2019-02-05T00:42:50.149Z,102.07
2019-02-05T00:45:21.031Z,100.93
2019-02-05T00:47:52.602Z,100.90
2019-02-05T00:50:23.081Z,104.30
2019-02-05T00:52:53.594Z,103.47
2019-02-05T00:55:24.097Z,103.10
2019-02-05T00:57:54.727Z,102.60
2019-02-05T01:00:27.474Z,100.47
2019-02-05T01:02:58.336Z,101.93
2019-02-05T01:05:28.969Z,101.20
2019-02-05T01:07:59.552Z,101.40
2019-02-05T01:10:30.121Z,100.37
2019-02-05T01:13:00.968Z,102.33
2019-02-05T01:15:32.536Z,101.63
2019-02-05T01:18:03.242Z,101.10
2019-02-05T01:20:33.885Z,101.03
2019-02-05T01:23:04.777Z,99.97
2019-02-05T01:25:36.708Z,100.23
2019-02-05T01:28:07.181Z,100.67
2019-02-05T01:30:37.669Z,101.43
2019-02-05T01:33:08.194Z,100.87
2019-02-05T01:35:38.834Z,100.80
2019-02-05T01:38:09.714Z,100.47
2019-02-05T01:40:41.829Z,100.43
2019-02-05T01:43:12.382Z,100.17
2019-02-05T01:45:43.126Z,102.73
2019-02-05T01:48:14.562Z,100.23
2019-02-05T01:50:45.572Z,101.53
2019-02-05T01:53:16.116Z,100.67
2019-02-05T01:55:46.914Z,100.27
2019-02-05T01:58:17.311Z,100.20
2019-02-05T02:00:47.958Z,100.90
2019-02-05T02:03:19.045Z,102.40
2019-02-05T02:05:49.865Z,100.50
2019-02-05T02:08:20.958Z,98.33
2019-02-05T02:10:51.717Z,99.30
2019-02-05T02:13:22.201Z,99.37
2019-02-05T02:15:52.779Z,99.70
2019-02-05T02:18:23.593Z,100.10
2019-02-05T02:20:55.685Z,100.73
2019-02-05T02:23:26.750Z,99.83
2019-02-05T02:25:57.246Z,99.17
2019-02-05T02:28:27.676Z,100.47
2019-02-05T02:30:58.630Z,99.93
2019-02-05T02:33:29.417Z,100.00
2019-02-05T02:35:59.938Z,99.80
2019-02-05T02:38:30.446Z,99.03
2019-02-05T02:41:01.228Z,100.27
2019-02-05T02:43:31.689Z,100.90
2019-02-05T02:46:02.160Z,101.10
2019-02-05T02:48:32.663Z,100.60
2019-02-05T02:51:03.158Z,99.87
2019-02-05T02:53:33.801Z,100.93
2019-02-05T02:56:04.746Z,99.10
2019-02-05T02:58:35.580Z,100.20
2019-02-05T03:01:06.134Z,101.03
2019-02-05T03:03:36.986Z,98.70
2019-02-05T03:06:07.492Z,99.03
2019-02-05T03:08:38.020Z,100.90
2019-02-05T03:11:08.674Z,100.60
2019-02-05T03:13:40.047Z,100.40
2019-02-05T03:16:10.840Z,100.27
2019-02-05T03:18:41.361Z,99.77
2019-02-05T03:21:11.947Z,99.93
2019-02-05T03:23:42.467Z,99.67
2019-02-05T03:26:13.000Z,99.40
2019-02-05T03:28:43.808Z,99.27
2019-02-05T03:31:14.329Z,99.10
2019-02-05T03:33:46.591Z,98.73
2019-02-05T03:36:17.549Z,99.40
2019-02-05T03:38:48.151Z,99.37
2019-02-05T03:41:18.638Z,98.03
2019-02-05T03:43:49.553Z,99.40
2019-02-05T03:46:20.736Z,97.13
2019-02-05T03:48:51.821Z,101.00
2019-02-05T03:51:33.498Z,100.03
2019-02-05T03:54:47.834Z,98.97
2019-02-05T03:58:00.016Z,97.57
2019-02-05T04:01:07.405Z,98.03
2019-02-05T04:03:56.550Z,99.07
2019-02-05T04:06:58.169Z,98.27
2019-02-05T04:10:14.153Z,98.30
2019-02-05T04:13:10.692Z,99.37
2019-02-05T04:16:05.541Z,99.00
2019-02-05T04:19:21.676Z,98.93
2019-02-05T04:22:49.446Z,99.80
2019-02-05T04:26:00.693Z,98.60
2019-02-05T04:29:15.588Z,99.70
2019-02-05T04:32:21.034Z,98.53
2019-02-05T04:35:19.188Z,97.93
2019-02-05T04:38:43.097Z,98.27
2019-02-05T04:41:38.589Z,97.10
2019-02-05T04:44:38.912Z,98.77
2019-02-05T04:47:27.203Z,98.93
2019-02-05T04:50:31.173Z,98.77
2019-02-05T04:53:33.960Z,98.07
2019-02-05T04:56:50.498Z,100.00
2019-02-05T05:00:10.069Z,98.00
2019-02-05T05:03:24.838Z,98.57
2019-02-05T05:06:18.933Z,98.47
2019-02-05T05:09:23.581Z,97.23
2019-02-05T05:11:54.245Z,98.17
2019-02-05T05:14:24.982Z,98.20
2019-02-05T05:16:55.466Z,97.63
2019-02-05T05:19:25.964Z,98.00
2019-02-05T05:21:56.839Z,97.43
2019-02-05T05:24:27.852Z,97.30
2019-02-05T05:26:58.693Z,98.30
2019-02-05T05:29:33.011Z,97.43
2019-02-05T05:32:02.108Z,97.33
2019-02-05T05:34:32.660Z,98.23
2019-02-05T05:37:01.504Z,97.27
2019-02-05T05:39:31.993Z,97.40
2019-02-05T05:42:02.475Z,97.43
2019-02-05T05:44:32.906Z,97.20
2019-02-05T05:47:03.769Z,97.13
2019-02-05T05:49:35.530Z,97.97
2019-02-05T05:52:07.393Z,97.60
2019-02-05T05:54:38.006Z,98.47
2019-02-05T05:57:08.452Z,98.83
2019-02-05T05:59:38.953Z,96.50
2019-02-05T06:02:09.519Z,97.87
2019-02-05T06:04:40.049Z,98.33
2019-02-05T06:07:10.647Z,97.60
2019-02-05T06:09:41.277Z,97.63
2019-02-05T06:12:11.730Z,97.40
2019-02-05T06:14:42.394Z,97.37
2019-02-05T06:17:12.847Z,96.37
2019-02-05T06:19:43.265Z,98.43
2019-02-05T06:22:13.773Z,98.00
2019-02-05T06:24:44.397Z,99.10
2019-02-05T06:27:15.045Z,99.93
2019-02-05T06:29:45.795Z,102.67
2019-02-05T06:32:16.287Z,101.37
2019-02-05T06:34:46.757Z,101.67
2019-02-05T06:37:17.304Z,98.63
2019-02-05T06:39:48.022Z,101.53
2019-02-05T06:42:18.593Z,98.30
2019-02-05T06:44:49.463Z,98.00
2019-02-05T06:47:20.137Z,99.37
2019-02-05T06:49:50.704Z,99.20
2019-02-05T06:52:21.672Z,96.83
2019-02-05T06:54:52.419Z,96.97
2019-02-05T06:57:22.977Z,97.27
2019-02-05T06:59:53.993Z,99.13
2019-02-05T07:02:24.755Z,97.77
2019-02-05T07:04:55.312Z,98.53
2019-02-05T07:07:25.804Z,99.33
2019-02-05T07:09:56.452Z,98.77
2019-02-05T07:12:28.553Z,98.27
2019-02-05T07:14:59.061Z,99.27
2019-02-05T07:17:29.545Z,97.00
2019-02-05T07:20:00.123Z,98.43
2019-02-05T07:22:30.881Z,97.70
2019-02-05T07:25:01.338Z,99.03
2019-02-05T07:27:32.462Z,98.27
2019-02-05T07:30:02.945Z,97.97
2019-02-05T07:32:33.760Z,98.03
2019-02-05T07:35:04.729Z,96.60
2019-02-05T07:37:35.241Z,97.27
2019-02-05T07:40:08.528Z,96.67
2019-02-05T07:42:39.257Z,98.03
2019-02-05T07:45:13.056Z,96.83
2019-02-05T07:47:43.681Z,98.20
2019-02-05T07:50:16.798Z,97.20
2019-02-05T07:52:47.371Z,96.57
2019-02-05T07:55:17.917Z,97.13
2019-02-05T07:57:48.832Z,97.80
2019-02-05T08:00:24.622Z,95.87
2019-02-05T08:02:55.638Z,95.60
2019-02-05T08:05:32.937Z,95.10
2019-02-05T08:08:03.731Z,96.53
2019-02-05T08:10:34.656Z,95.73
2019-02-05T08:13:06.021Z,96.43
2019-02-05T08:15:36.628Z,96.03
2019-02-05T08:18:07.573Z,95.10
2019-02-05T08:20:38.517Z,94.67
2019-02-05T08:23:09.158Z,94.93
2019-02-05T08:25:39.872Z,95.43
2019-02-05T08:28:10.997Z,94.77
2019-02-05T08:30:44.518Z,95.10
2019-02-05T08:33:20.294Z,95.60
2019-02-05T08:35:50.948Z,93.43
2019-02-05T08:38:21.903Z,94.10
2019-02-05T08:40:53.169Z,94.37
2019-02-05T08:43:23.770Z,94.90
2019-02-05T08:45:56.822Z,94.10
2019-02-05T08:48:26.993Z,94.30
2019-02-05T08:50:58.543Z,96.47
2019-02-05T08:53:29.073Z,94.70
2019-02-05T08:55:59.649Z,96.73
2019-02-05T08:58:31.365Z,94.13
2019-02-05T09:01:02.007Z,94.63
2019-02-05T09:03:33.524Z,94.53
2019-02-05T09:06:07.067Z,95.10
2019-02-05T09:08:37.928Z,93.77
2019-02-05T09:11:08.586Z,94.43
2019-02-05T09:13:40.224Z,95.50
2019-02-05T09:16:10.958Z,95.57
2019-02-05T09:18:41.513Z,95.20
2019-02-05T09:21:13.340Z,94.30
2019-02-05T09:23:43.878Z,94.77
2019-02-05T09:26:14.500Z,92.90
2019-02-05T09:28:46.129Z,94.90
2019-02-05T09:31:16.661Z,95.37
2019-02-05T09:33:48.640Z,94.80
2019-02-05T09:36:19.521Z,95.47
2019-02-05T09:38:50.054Z,92.73
2019-02-05T09:41:21.293Z,94.00
2019-02-05T09:43:51.904Z,94.77
2019-02-05T09:46:22.393Z,93.57
2019-02-05T09:48:52.951Z,94.90
2019-02-05T09:51:23.717Z,94.80
2019-02-05T09:53:54.623Z,95.37
2019-02-05T09:56:25.198Z,94.40
2019-02-05T09:58:55.684Z,95.33
2019-02-05T10:01:26.249Z,95.60
2019-02-05T10:03:56.710Z,96.70
2019-02-05T10:06:29.041Z,94.63
2019-02-05T10:08:59.509Z,98.53
2019-02-05T10:11:30.177Z,95.63
2019-02-05T10:14:00.660Z,97.57
2019-02-05T10:16:31.641Z,96.20
2019-02-05T10:19:02.279Z,97.00
2019-02-05T10:21:33.249Z,96.97
2019-02-05T10:24:03.901Z,96.07
2019-02-05T10:26:34.500Z,95.33
2019-02-05T10:29:05.126Z,95.77
2019-02-05T10:31:35.726Z,95.87
2019-02-05T10:34:06.416Z,94.90
2019-02-05T10:36:36.952Z,95.77
2019-02-05T10:39:10.207Z,95.60
2019-02-05T10:41:41.378Z,96.63
2019-02-05T10:44:12.176Z,95.73
2019-02-05T10:46:42.645Z,96.97
2019-02-05T10:49:13.768Z,96.23
2019-02-05T10:51:44.253Z,95.67
2019-02-05T10:54:14.864Z,95.73
2019-02-05T10:56:45.356Z,95.77
2019-02-05T10:59:15.910Z,95.63
2019-02-05T11:01:46.553Z,96.80
2019-02-05T11:04:18.870Z,97.57
2019-02-05T11:06:49.420Z,97.00
2019-02-05T11:09:20.233Z,96.10
2019-02-05T11:11:50.797Z,95.67
2019-02-05T11:14:21.385Z,97.07
2019-02-05T11:16:51.920Z,96.20
2019-02-05T11:19:22.791Z,96.13
2019-02-05T11:21:53.541Z,96.20
2019-02-05T11:24:24.104Z,96.93
2019-02-05T11:26:54.690Z,97.53
2019-02-05T11:29:28.693Z,97.20
2019-02-05T11:32:00.801Z,96.40
2019-02-05T11:34:31.374Z,96.40
2019-02-05T11:37:01.988Z,98.43
2019-02-05T11:39:32.523Z,97.30
2019-02-05T11:42:02.980Z,95.57
2019-02-05T11:44:33.624Z,95.30
2019-02-05T11:47:04.391Z,95.37
2019-02-05T11:49:34.941Z,95.63
2019-02-05T11:52:05.457Z,95.30
2019-02-05T11:54:35.904Z,94.10
2019-02-05T11:57:06.834Z,97.23
2019-02-05T11:59:37.325Z,97.37
2019-02-05T12:02:08.130Z,94.90
2019-02-05T12:04:38.696Z,94.00
2019-02-05T12:07:09.286Z,95.80
2019-02-05T12:09:39.877Z,94.87
2019-02-05T12:12:10.734Z,96.23
2019-02-05T12:14:41.225Z,95.30
2019-02-05T12:17:12.133Z,93.50
2019-02-05T12:19:42.585Z,93.10
2019-02-05T12:22:13.127Z,94.50
2019-02-05T12:24:43.929Z,94.00
2019-02-05T12:27:14.541Z,97.60
2019-02-05T12:29:45.048Z,94.63
2019-02-05T12:32:15.689Z,94.67
2019-02-05T12:34:46.253Z,96.87
2019-02-05T12:37:17.282Z,95.40
2019-02-05T12:39:47.869Z,96.37
2019-02-05T12:42:18.352Z,95.27
2019-02-05T12:44:48.931Z,97.23
2019-02-05T12:47:21.307Z,95.73
2019-02-05T12:49:51.752Z,97.20
2019-02-05T12:52:22.496Z,96.10
2019-02-05T12:54:52.987Z,96.50
2019-02-05T12:57:23.506Z,95.93
2019-02-05T12:59:55.729Z,95.87
2019-02-05T13:02:26.373Z,97.23
2019-02-05T13:04:56.817Z,97.50
2019-02-05T13:07:27.338Z,96.83
2019-02-05T13:09:57.951Z,97.17
2019-02-05T13:12:28.429Z,95.97
2019-02-05T13:14:59.212Z,96.13
2019-02-05T13:17:29.879Z,97.77
2019-02-05T13:20:00.505Z,96.00
2019-02-05T13:22:31.093Z,96.47
2019-02-05T13:25:01.778Z,100.33
2019-02-05T13:27:32.695Z,97.17
2019-02-05T13:30:03.477Z,96.63
2019-02-05T13:32:34.465Z,97.10
2019-02-05T13:35:06.208Z,97.93
2019-02-05T13:37:37.864Z,98.37
2019-02-05T13:40:10.327Z,95.90
2019-02-05T13:42:40.773Z,98.40
2019-02-05T13:45:11.716Z,97.10
2019-02-05T13:47:42.429Z,98.93
2019-02-05T13:50:16.549Z,100.03
2019-02-05T13:52:47.594Z,97.33
2019-02-05T13:55:23.321Z,98.43
2019-02-05T13:57:53.856Z,97.80
2019-02-05T14:00:44.893Z,100.20
2019-02-05T14:03:16.008Z,97.23
2019-02-05T14:05:46.705Z,97.57
2019-02-05T14:08:17.309Z,98.60
2019-02-05T14:10:48.684Z,98.70
2019-02-05T14:13:19.366Z,98.77
2019-02-05T14:15:52.393Z,98.50
2019-02-05T14:18:24.143Z,101.00
2019-02-05T14:20:54.971Z,98.93
2019-02-05T14:23:27.922Z,99.67
2019-02-05T14:25:59.777Z,98.87
2019-02-05T14:28:30.732Z,99.30
2019-02-05T14:31:01.190Z,99.50
2019-02-05T14:33:32.358Z,97.80
2019-02-05T14:36:02.913Z,98.83
2019-02-05T14:38:33.521Z,98.73
2019-02-05T14:41:04.556Z,99.70
2019-02-05T14:43:34.991Z,98.73
2019-02-05T14:46:06.184Z,99.47
2019-02-05T14:48:36.729Z,99.97
2019-02-05T14:51:07.280Z,98.67
2019-02-05T14:53:37.954Z,99.20
2019-02-05T14:56:08.873Z,98.77
2019-02-05T14:58:39.347Z,100.10
2019-02-05T15:01:09.980Z,100.83
2019-02-05T15:03:41.942Z,99.53
2019-02-05T15:06:13.937Z,98.93
2019-02-05T15:08:45.557Z,101.13
2019-02-05T15:11:16.162Z,99.40
2019-02-05T15:13:46.691Z,99.37
2019-02-05T15:16:17.264Z,101.53
2019-02-05T15:18:47.832Z,100.40
2019-02-05T15:21:18.678Z,101.10
2019-02-05T15:23:49.340Z,99.97
2019-02-05T15:26:20.146Z,100.93
2019-02-05T15:28:53.844Z,102.10
2019-02-05T15:31:26.813Z,102.80
2019-02-05T15:34:02.512Z,100.07
2019-02-05T15:36:35.302Z,102.57
2019-02-05T15:39:13.919Z,100.87
2019-02-05T15:41:44.604Z,100.07
2019-02-05T15:44:15.621Z,98.97
2019-02-05T15:46:46.139Z,99.97
2019-02-05T15:49:16.964Z,99.33
2019-02-05T15:51:47.603Z,101.50
2019-02-05T15:54:18.238Z,101.33
2019-02-05T15:56:49.314Z,100.90
2019-02-05T15:59:19.773Z,100.80
2019-02-05T16:01:50.293Z,102.03
2019-02-05T16:04:20.837Z,100.80
2019-02-05T16:06:51.435Z,102.23
2019-02-05T16:09:21.964Z,100.73
2019-02-05T16:11:52.882Z,102.63
2019-02-05T16:14:23.686Z,101.67
2019-02-05T16:16:54.312Z,102.23
2019-02-05T16:19:24.794Z,101.93
2019-02-05T16:21:56.928Z,103.47
2019-02-05T16:24:27.760Z,102.40
2019-02-05T16:26:58.262Z,102.30
2019-02-05T16:29:28.684Z,102.33
2019-02-05T16:32:00.113Z,102.87
2019-02-05T16:34:30.624Z,104.43
2019-02-05T16:37:01.249Z,102.77
2019-02-05T16:39:31.753Z,104.63
2019-02-05T16:42:02.314Z,103.20
2019-02-05T16:44:33.077Z,104.63
2019-02-05T16:47:03.578Z,103.30
2019-02-05T16:49:34.081Z,103.63
2019-02-05T16:52:04.912Z,103.73
2019-02-05T16:54:35.445Z,102.50
2019-02-05T16:57:05.993Z,103.20
2019-02-05T16:59:36.475Z,103.23
2019-02-05T17:02:07.233Z,105.53
2019-02-05T17:04:37.775Z,103.93
2019-02-05T17:07:08.442Z,105.10
2019-02-05T17:09:38.922Z,103.17
2019-02-05T17:12:09.457Z,104.90
2019-02-05T17:14:40.987Z,104.33
2019-02-05T17:17:11.481Z,103.97
2019-02-05T17:19:42.252Z,105.17
2019-02-05T17:22:15.389Z,105.00
2019-02-05T17:24:46.128Z,103.77
2019-02-05T17:27:16.949Z,105.00
2019-02-05T17:29:50.143Z,105.43
2019-02-05T17:32:19.784Z,104.57
2019-02-05T17:34:50.461Z,105.60
2019-02-05T17:37:21.169Z,104.60
2019-02-05T17:39:51.758Z,104.90
2019-02-05T17:42:22.300Z,104.93
2019-02-05T17:44:53.013Z,105.67
2019-02-05T17:47:23.669Z,104.93
2019-02-05T17:49:54.262Z,104.37
2019-02-05T17:52:25.255Z,105.37
2019-02-05T17:54:55.777Z,104.93
2019-02-05T17:57:29.387Z,106.27
2019-02-05T18:00:00.279Z,106.93
2019-02-05T18:02:30.985Z,106.47
2019-02-05T18:05:01.649Z,105.70
2019-02-05T18:07:33.430Z,105.80
2019-02-05T18:10:04.197Z,105.83
2019-02-05T18:12:38.023Z,106.07
2019-02-05T18:15:12.577Z,106.30
2019-02-05T18:17:43.122Z,105.57
2019-02-05T18:20:13.896Z,104.60
2019-02-05T18:22:44.493Z,107.47
2019-02-05T18:25:17.571Z,105.57
2019-02-05T18:27:48.800Z,106.67
2019-02-05T18:30:25.232Z,106.20
2019-02-05T18:33:03.667Z,106.80
2019-02-05T18:35:29.029Z,105.80
2019-02-05T18:38:02.888Z,105.17
2019-02-05T18:40:33.646Z,106.27
2019-02-05T18:43:04.335Z,106.53
2019-02-05T18:45:34.969Z,106.60
2019-02-05T18:48:06.030Z,107.03
2019-02-05T18:50:36.593Z,107.47
2019-02-05T18:53:07.126Z,106.43
2019-02-05T18:55:37.859Z,106.33
2019-02-05T18:58:09.875Z,105.30
2019-02-05T19:00:43.914Z,104.37
2019-02-05T19:03:16.197Z,105.90
2019-02-05T19:05:46.964Z,107.07
2019-02-05T19:08:17.557Z,106.83
2019-02-05T19:10:48.134Z,106.07
2019-02-05T19:13:18.757Z,106.80
2019-02-05T19:15:49.497Z,107.87
2019-02-05T19:18:20.103Z,107.23
2019-02-05T19:20:50.848Z,106.03
2019-02-05T19:23:21.354Z,106.03
2019-02-05T19:25:57.774Z,107.13
2019-02-05T19:28:30.862Z,108.27
2019-02-05T19:31:09.262Z,106.53
2019-02-05T19:33:40.033Z,106.03
2019-02-05T19:36:12.322Z,106.27
2019-02-05T19:38:43.186Z,107.70
2019-02-05T19:41:13.976Z,107.77
2019-02-05T19:43:44.507Z,106.20
2019-02-05T19:46:33.011Z,106.00
2019-02-05T19:51:49.008Z,106.47
2019-02-05T19:54:20.955Z,105.60
2019-02-05T19:56:51.496Z,106.87
2019-02-05T19:59:22.529Z,107.33
2019-02-05T20:01:53.137Z,106.10
2019-02-05T20:04:24.141Z,106.67
2019-02-05T20:06:55.120Z,106.50
2019-02-05T20:09:25.729Z,107.00
2019-02-05T20:11:56.605Z,105.50
2019-02-05T20:14:27.556Z,108.00
2019-02-05T20:16:58.273Z,105.70
2019-02-05T20:19:28.892Z,107.10
2019-02-05T20:21:59.632Z,104.87
2019-02-05T20:24:31.812Z,106.13
2019-02-05T20:27:02.420Z,107.00
2019-02-05T20:29:33.285Z,106.77
2019-02-05T20:32:04.030Z,106.87
2019-02-05T20:34:35.657Z,107.57
2019-02-05T20:37:06.836Z,107.17
2019-02-05T20:39:37.479Z,108.63
2019-02-05T20:42:08.437Z,107.07
2019-02-05T20:44:39.045Z,105.57
2019-02-05T20:47:09.902Z,106.47
2019-02-05T20:49:41.605Z,106.77
2019-02-05T20:52:12.423Z,108.13
2019-02-05T20:54:43.436Z,108.70
2019-02-05T20:57:14.285Z,107.20
2019-02-05T20:59:45.121Z,110.33
2019-02-05T21:02:16.049Z,107.33
2019-02-05T21:04:48.676Z,108.00
2019-02-05T21:07:19.359Z,107.17
2019-02-05T21:09:50.111Z,108.77
2019-02-05T21:12:20.672Z,107.50
2019-02-05T21:14:51.238Z,109.30
2019-02-05T21:17:21.890Z,106.67
2019-02-05T21:19:52.416Z,108.40
2019-02-05T21:23:03.762Z,107.17
2019-02-05T21:25:35.416Z,107.33
2019-02-05T21:28:06.252Z,108.33
2019-02-05T21:30:37.413Z,108.30
2019-02-05T21:33:07.940Z,106.47
2019-02-05T21:35:38.514Z,107.90
2019-02-05T21:38:09.376Z,109.13
2019-02-05T21:40:40.091Z,109.90
2019-02-05T21:43:10.662Z,111.17
2019-02-05T21:45:41.294Z,108.73
2019-02-05T21:48:12.013Z,107.73
2019-02-05T21:50:42.666Z,107.83
2019-02-05T21:53:13.528Z,107.87
2019-02-05T21:55:44.067Z,108.37
2019-02-05T21:58:14.710Z,109.07
2019-02-05T22:00:45.282Z,109.70
2019-02-05T22:03:15.928Z,109.00
2019-02-05T22:05:46.805Z,108.10
2019-02-05T22:08:17.533Z,109.27
2019-02-05T22:10:47.979Z,109.50
2019-02-05T22:13:18.513Z,108.93
2019-02-05T22:15:49.114Z,108.93
2019-02-05T22:18:19.688Z,109.60
2019-02-05T22:20:51.377Z,109.97
2019-02-05T22:23:22.304Z,109.17
2019-02-05T22:25:52.861Z,109.13
2019-02-05T22:28:23.424Z,109.27
2019-02-05T22:30:54.425Z,108.67
2019-02-05T22:33:27.942Z,108.30
2019-02-05T22:35:57.546Z,108.37
2019-02-05T22:38:28.072Z,108.80
2019-02-05T22:40:58.559Z,109.20
2019-02-05T22:43:29.017Z,109.20
2019-02-05T22:45:59.481Z,108.90
2019-02-05T22:48:30.511Z,108.33
2019-02-05T22:51:01.036Z,108.47
2019-02-05T22:53:31.796Z,108.93
2019-02-05T22:56:02.289Z,107.70
2019-02-05T22:58:33.089Z,107.43
2019-02-05T23:01:46.756Z,109.10
2019-02-05T23:05:02.430Z,107.20
2019-02-05T23:07:32.982Z,107.40
2019-02-05T23:11:03.435Z,109.23
2019-02-05T23:13:30.880Z,108.57
2019-02-05T23:16:01.513Z,109.03
2019-02-05T23:18:32.140Z,108.93
2019-02-05T23:21:02.629Z,108.73
2019-02-05T23:23:33.241Z,108.57
2019-02-05T23:26:04.043Z,109.97
2019-02-05T23:28:35.048Z,110.27
2019-02-05T23:31:05.922Z,111.23
2019-02-05T23:33:36.726Z,110.03
2019-02-05T23:36:07.247Z,110.83
2019-02-05T23:38:37.792Z,109.17
2019-02-05T23:41:08.517Z,108.87
2019-02-05T23:43:40.693Z,110.43
2019-02-05T23:46:11.219Z,109.70
2019-02-05T23:48:41.974Z,110.13
2019-02-05T23:51:12.388Z,110.30
2019-02-05T23:53:43.052Z,109.33
2019-02-05T23:56:25.256Z,109.10
2019-02-05T23:58:46.812Z,109.03
